Time;durP1;ratioP1;P1;durP2;ratioP2;P2;SDS_P1;SDS_P2;PMS_P1;PMS_P2;Temp;Humidity;BMP_temperature;BMP_pressure;BME280_temperature;BME280_humidity;BME280_pressure;Samples;Min_cycle;Max_cycle;Signal;HPM_P1;HPM_P2
2022/08/11 00:01:25;;;;;;;6.22;3.03;;;;;;;21.69;47.17;101963.13;3588445;40;20108;-62
2022/08/11 00:03:59;;;;;;;4.72;2.67;;;;;;;21.65;46.91;101957.09;3586198;40;20089;-63
2022/08/11 00:06:36;;;;;;;3.25;2.85;;;;;;;21.61;46.84;101952.91;3585874;40;20092;-63
2022/08/11 00:09:09;;;;;;;4.03;2.90;;;;;;;21.55;46.94;101965.25;3589801;40;20058;-63
2022/08/11 00:11:54;;;;;;;6.47;2.90;;;;;;;21.44;47.25;101940.75;3590122;39;20062;-62
2022/08/11 00:14:31;;;;;;;3.67;2.67;;;;;;;21.51;47.08;101957.50;3585785;40;20052;-62
2022/08/11 00:17:06;;;;;;;5.25;2.72;;;;;;;21.46;47.82;101960.63;3589386;40;20049;-62
2022/08/11 00:19:38;;;;;;;5.55;3.00;;;;;;;21.15;47.92;101910.50;3586867;40;20063;-63
2022/08/11 00:22:05;;;;;;;5.13;2.95;;;;;;;21.40;47.59;101957.56;3587577;40;20320;-62
2022/08/11 00:24:38;;;;;;;4.95;3.10;;;;;;;21.38;47.36;101960.47;3589162;40;20059;-62
2022/08/11 00:27:06;;;;;;;5.63;2.97;;;;;;;21.38;47.80;101960.47;3587690;40;20047;-62
2022/08/11 00:29:32;;;;;;;4.18;3.08;;;;;;;21.37;48.13;101968.78;3588885;40;20052;-62
2022/08/11 00:32:05;;;;;;;6.70;3.30;;;;;;;21.33;47.64;101959.97;3587822;40;20051;-63
2022/08/11 00:34:37;;;;;;;4.72;2.92;;;;;;;21.32;48.41;101964.56;3587107;39;20141;-62
2022/08/11 00:37:18;;;;;;;3.85;2.90;;;;;;;21.30;48.35;101960.25;3587419;40;20058;-62
2022/08/11 00:39:50;;;;;;;3.53;2.90;;;;;;;21.25;48.28;101954.31;3584232;40;20052;-63
2022/08/11 00:42:39;;;;;;;3.40;2.75;;;;;;;21.22;47.99;101952.72;3585554;40;20255;-62
2022/08/11 00:45:34;;;;;;;4.35;3.42;;;;;;;21.19;49.16;101954.88;3587532;40;20386;-62
2022/08/11 00:48:32;;;;;;;3.90;2.95;;;;;;;21.13;49.20;101949.94;3588085;40;20067;-63
2022/08/11 00:51:39;;;;;;;4.32;3.35;;;;;;;21.12;48.77;101953.66;3587849;40;20064;-62
2022/08/11 00:54:58;;;;;;;5.38;3.08;;;;;;;21.07;49.00;101954.94;3585684;40;20115;-63
2022/08/11 00:58:14;;;;;;;5.00;2.97;;;;;;;21.03;48.31;101956.22;3585420;40;20056;-63
2022/08/11 01:01:06;;;;;;;3.90;3.25;;;;;;;20.97;48.81;101954.03;3584429;40;20046;-63
2022/08/11 01:03:59;;;;;;;4.43;2.88;;;;;;;20.94;49.09;101956.19;3585648;40;20044;-63
2022/08/11 01:07:06;;;;;;;3.92;3.20;;;;;;;20.86;49.08;101951.38;3585017;40;20064;-63
2022/08/11 01:10:12;;;;;;;3.00;2.70;;;;;;;20.83;49.70;101948.91;3585789;40;20059;-63
2022/08/11 01:13:33;;;;;;;5.72;3.00;;;;;;;20.78;49.54;101952.06;3586494;40;20052;-63
2022/08/11 01:16:16;;;;;;;5.80;3.40;;;;;;;20.74;50.18;101947.88;3589013;40;20063;-63
2022/08/11 01:19:20;;;;;;;4.40;3.03;;;;;;;20.71;49.91;101958.16;3587795;40;20059;-63
2022/08/11 01:22:13;;;;;;;4.38;2.83;;;;;;;20.67;50.66;101954.84;3587448;40;20052;-63
2022/08/11 01:25:24;;;;;;;3.80;3.35;;;;;;;20.57;50.39;101952.03;3587492;40;20099;-63
2022/08/11 01:28:27;;;;;;;4.03;2.67;;;;;;;20.50;50.34;101956.28;3591416;39;20049;-63
2022/08/11 01:31:36;;;;;;;6.47;3.42;;;;;;;20.47;51.03;101955.66;3584824;40;20145;-63
2022/08/11 01:34:48;;;;;;;4.80;2.97;;;;;;;20.42;50.48;101958.78;3587176;40;20083;-63
2022/08/11 01:37:57;;;;;;;5.28;3.35;;;;;;;20.37;50.88;101961.06;3587006;40;20055;-63
2022/08/11 01:41:03;;;;;;;6.20;3.10;;;;;;;20.36;50.86;101965.66;3586000;40;20045;-63
2022/08/11 01:44:37;;;;;;;3.50;3.20;;;;;;;20.31;51.17;101965.16;3587133;40;20079;-64
2022/08/11 01:47:52;;;;;;;5.57;3.30;;;;;;;20.27;50.66;101968.31;3577921;40;20051;-64
2022/08/11 01:50:41;;;;;;;3.55;3.22;;;;;;;20.27;50.80;101962.84;3584073;40;20064;-63
2022/08/11 01:53:49;;;;;;;3.92;3.40;;;;;;;20.24;50.88;101965.84;3590929;40;20052;-63
2022/08/11 01:56:48;;;;;;;6.05;3.20;;;;;;;20.23;50.94;101970.41;3585971;40;20125;-63
2022/08/11 01:59:48;;;;;;;5.00;3.40;;;;;;;19.93;51.33;101916.53;3590126;39;20303;-63
2022/08/11 02:02:46;;;;;;;3.75;3.22;;;;;;;20.20;51.74;101964.34;3592887;40;20055;-63
2022/08/11 02:05:48;;;;;;;7.40;3.58;;;;;;;20.19;51.68;101968.94;3593202;40;20279;-63
2022/08/11 02:08:43;;;;;;;7.00;3.88;;;;;;;19.99;51.12;101939.72;3591026;40;20048;-63
2022/08/11 02:11:29;;;;;;;7.38;3.42;;;;;;;20.14;51.20;101966.59;3590124;40;20067;-63
2022/08/11 02:14:19;;;;;;;3.88;3.08;;;;;;;20.12;52.36;101974.06;3592863;39;20102;-63
2022/08/11 02:17:20;;;;;;;5.82;3.50;;;;;;;20.08;52.02;101972.59;3589455;40;20096;-63
2022/08/11 02:23:39;;;;;;;5.25;3.67;;;;;;;19.97;52.65;101972.59;3590366;40;20420;-63
2022/08/11 02:26:20;;;;;;;5.00;3.60;;;;;;;19.91;51.94;101964.91;3583632;40;20074;-63
2022/08/11 02:29:28;;;;;;;5.32;3.50;;;;;;;19.87;53.35;101964.31;3588345;40;20079;-63
2022/08/11 02:35:41;;;;;;;5.13;3.67;;;;;;;19.78;53.15;101956.03;3588354;40;20058;-63
2022/08/11 02:39:02;;;;;;;4.10;3.70;;;;;;;19.68;52.89;101948.59;3588075;40;20124;-64
2022/08/11 02:42:24;;;;;;;8.05;3.55;;;;;;;19.68;53.07;101948.59;3587543;40;20062;-63
2022/08/11 02:45:11;;;;;;;7.80;3.58;;;;;;;19.05;53.11;101860.13;3590104;40;20036;-63
2022/08/11 02:51:32;;;;;;;4.10;3.30;;;;;;;19.54;54.01;101940.66;3588765;40;20055;-63
2022/08/11 02:54:11;;;;;;;7.40;3.78;;;;;;;19.50;53.49;101944.63;3583679;40;20368;-63
2022/08/11 02:57:09;;;;;;;5.07;3.70;;;;;;;19.46;53.90;101940.41;3587177;40;20100;-63
2022/08/11 02:59:54;;;;;;;5.28;3.33;;;;;;;19.16;53.94;101902.91;3589075;40;20057;-63
2022/08/11 03:02:46;;;;;;;4.15;3.50;;;;;;;19.27;54.19;101932.88;3587742;40;20065;-63
2022/08/11 03:05:19;;;;;;;8.07;3.65;;;;;;;19.36;54.70;101953.06;3589783;40;20060;-63
2022/08/11 03:08:23;;;;;;;4.07;3.70;;;;;;;19.34;53.61;101949.59;3588749;40;20093;-63
2022/08/11 03:17:35;;;;;;;7.65;3.83;;;;;;;19.23;54.40;101943.16;3585706;40;20063;-63
2022/08/11 03:20:41;;;;;;;3.67;3.22;;;;;;;19.20;53.81;101943.41;3592650;40;20091;-63
2022/08/11 03:23:40;;;;;;;4.95;3.65;;;;;;;19.17;53.80;101943.66;3586060;40;20075;-62
2022/08/11 03:26:37;;;;;;;4.57;3.60;;;;;;;19.13;54.57;101944.88;3589881;40;20087;-63
2022/08/11 03:29:30;;;;;;;4.85;3.20;;;;;;;19.10;54.44;101947.88;3590525;40;20055;-62
2022/08/11 03:32:10;;;;;;;5.45;3.70;;;;;;;19.05;54.34;101944.63;3589849;40;20048;-63
2022/08/11 03:34:44;;;;;;;6.05;3.92;;;;;;;19.05;54.90;101949.22;3587400;39;20052;-63
2022/08/11 03:37:58;;;;;;;4.00;3.60;;;;;;;19.02;54.93;101955.78;3585040;40;20085;-63
2022/08/11 03:44:17;;;;;;;7.35;3.80;;;;;;;18.93;55.22;101948.31;3591074;40;20044;-63
2022/08/11 03:47:12;;;;;;;8.13;4.13;;;;;;;18.91;55.25;101953.03;3588291;40;20382;-63
2022/08/11 03:50:15;;;;;;;7.32;4.03;;;;;;;18.87;54.88;101946.97;3584673;40;20052;-63
2022/08/11 03:53:08;;;;;;;4.95;4.05;;;;;;;18.84;55.05;101951.78;3590543;40;20068;-63
2022/08/11 03:56:11;;;;;;;5.93;4.25;;;;;;;18.82;55.47;101948.31;3587069;39;20048;-62
2022/08/11 03:59:02;;;;;;;6.88;4.18;;;;;;;18.82;54.86;101940.16;3591284;40;20048;-63
2022/08/11 04:01:54;;;;;;;6.30;4.45;;;;;;;18.79;55.10;101950.28;3590382;40;20054;-63
2022/08/11 04:05:19;;;;;;;5.57;4.50;;;;;;;18.75;55.66;101951.53;3590507;40;20050;-63
2022/08/11 04:07:59;;;;;;;;;;;;;;;18.62;55.57;101928.94;3589126;40;20072;-63
2022/08/11 04:10:40;;;;;;;5.63;4.75;;;;;;;18.66;55.73;101944.03;3588457;40;19943;-63
2022/08/11 04:13:39;;;;;;;6.47;5.10;;;;;;;18.64;56.51;101940.56;3589661;40;20449;-64
2022/08/11 04:16:39;;;;;;;5.40;4.90;;;;;;;18.61;56.45;101943.53;3589479;40;20059;-63
2022/08/11 04:19:53;;;;;;;8.20;5.13;;;;;;;18.56;56.56;101938.44;3586023;40;20118;-63
2022/08/11 04:22:31;;;;;;;7.60;5.28;;;;;;;18.53;56.31;101937.81;3587651;40;20048;-63
2022/08/11 04:25:47;;;;;;;15.93;7.90;;;;;;;18.45;56.95;101929.38;3591267;40;20145;-63
2022/08/11 04:28:36;;;;;;;11.63;7.05;;;;;;;18.49;57.04;101929.03;3589418;40;20095;-63
2022/08/11 04:31:36;;;;;;;7.05;5.18;;;;;;;18.47;57.32;101933.72;3591579;40;20047;-64
2022/08/11 04:34:43;;;;;;;5.53;4.75;;;;;;;18.47;57.35;101944.59;3591648;40;20125;-63
2022/08/11 04:37:46;;;;;;;5.40;4.85;;;;;;;18.45;56.94;101940.25;3588935;40;20043;-63
2022/08/11 04:40:55;;;;;;;5.97;4.60;;;;;;;18.42;56.97;101940.50;3585613;40;20102;-63
2022/08/11 04:44:02;;;;;;;10.35;5.35;;;;;;;18.44;56.96;101941.25;3590146;40;20048;-63
2022/08/11 04:47:07;;;;;;;7.53;5.10;;;;;;;18.42;56.75;101935.91;3585147;40;20052;-63
2022/08/11 05:03:45;;;;;;;8.48;4.60;;;;;;;18.48;57.47;101949.06;3584260;40;20117;-63
2022/08/11 05:07:00;;;;;;;5.15;4.55;;;;;;;18.50;57.18;101946.22;3587219;40;20148;-63
2022/08/11 05:10:01;;;;;;;6.82;4.95;;;;;;;18.53;57.06;101948.72;3583843;40;20048;-63
2022/08/11 05:12:41;;;;;;;9.25;5.03;;;;;;;18.55;57.29;101946.72;3583859;40;20063;-63
2022/08/11 05:35:48;;;;;;;8.32;5.10;;;;;;;18.90;56.38;101952.19;3588040;40;20082;-63
2022/08/11 05:58:05;;;;;;;15.52;10.20;;;;;;;19.46;55.65;101949.47;3586525;40;20125;-61
2022/08/11 06:00:45;;;;;;;7.83;5.70;;;;;;;19.51;55.17;101949.09;3583390;40;20397;-62
2022/08/11 06:03:26;;;;;;;9.40;5.25;;;;;;;19.59;55.26;101951.19;3583724;40;20325;-63
2022/08/11 06:05:53;;;;;;;8.00;4.18;;;;;;;19.62;55.59;101954.53;3584220;40;20056;-62
2022/08/11 06:08:30;;;;;;;5.28;3.75;;;;;;;19.71;54.47;101955.66;3585262;39;20054;-62
2022/08/11 06:11:04;;;;;;;6.57;4.03;;;;;;;19.81;54.46;101955.78;3584530;40;20052;-62
2022/08/11 06:13:31;;;;;;;7.40;3.80;;;;;;;19.88;54.26;101956.97;3588593;39;20128;-62
2022/08/11 06:15:58;;;;;;;6.05;3.80;;;;;;;19.99;53.54;101951.50;3584310;39;20059;-62
2022/08/11 06:18:26;;;;;;;5.03;4.03;;;;;;;20.09;53.44;101957.94;3583047;40;20044;-62
2022/08/11 06:20:59;;;;;;;4.35;3.50;;;;;;;20.20;53.26;101959.75;3587628;40;20052;-62
2022/08/11 06:23:32;;;;;;;8.13;3.63;;;;;;;20.33;52.76;101965.91;3584751;39;20037;-64
2022/08/11 06:26:00;;;;;;;5.60;3.95;;;;;;;20.43;52.58;101957.81;3583453;40;20262;-62
2022/08/11 06:28:37;;;;;;;9.05;4.28;;;;;;;20.58;52.34;101952.91;3583219;40;20055;-62
2022/08/11 06:31:18;;;;;;;7.63;4.28;;;;;;;20.74;50.97;101963.38;3583836;40;20089;-62
2022/08/11 06:33:49;;;;;;;5.55;3.90;;;;;;;20.90;50.92;101962.88;3586494;40;20106;-64
2022/08/11 06:36:22;;;;;;;8.82;3.80;;;;;;;21.06;50.38;101955.09;3587427;39;20074;-62
2022/08/11 06:39:38;;;;;;;5.78;3.95;;;;;;;21.31;50.17;101953.75;3583371;40;20401;-62
2022/08/11 06:42:21;;;;;;;6.55;4.18;;;;;;;21.49;49.93;101943.94;3590174;40;20059;-62
2022/08/11 06:45:28;;;;;;;;;;;;;;;21.75;48.99;101960.72;3592101;40;20123;-62
2022/08/11 06:47:59;;;;;;;8.40;4.18;;;;;;;21.99;48.64;101960.34;3585304;40;19932;-62
2022/08/11 06:53:17;;;;;;;6.43;3.70;;;;;;;22.45;47.20;101966.16;3593185;40;20084;-61
2022/08/11 07:02:09;;;;;;;7.70;3.70;;;;;;;23.09;46.17;101970.13;3590664;40;20051;-62
2022/08/11 07:04:48;;;;;;;11.27;3.85;;;;;;;23.37;45.57;101969.19;3589896;40;20044;-62
2022/08/11 07:28:53;;;;;;;7.95;3.28;;;;;;;24.34;43.19;101970.50;3590646;40;20109;-62
2022/08/11 07:28:58;;;;;;;5.93;3.60;;;;;;;24.97;41.65;101966.75;3589052;40;20298;-63
2022/08/11 07:31:49;;;;;;;3.85;3.38;;;;;;;25.12;40.79;101962.41;3584385;40;20056;-62
2022/08/11 07:34:39;;;;;;;4.75;3.40;;;;;;;25.37;40.79;101968.03;3587989;40;20052;-63
2022/08/11 07:37:18;;;;;;;5.50;3.40;;;;;;;25.51;41.51;101959.19;3585333;40;20050;-62
2022/08/11 07:39:47;;;;;;;8.15;3.60;;;;;;;25.63;39.98;101962.50;3586775;40;20079;-63
2022/08/11 07:42:20;;;;;;;8.82;3.35;;;;;;;25.87;38.99;101965.34;3584628;40;20383;-63
2022/08/11 07:53:09;;;;;;;6.85;3.50;;;;;;;26.45;38.19;101957.19;3589847;40;20064;-63
2022/08/11 07:55:37;;;;;;;6.75;3.95;;;;;;;26.63;36.99;101969.78;3587042;39;20596;-64
2022/08/11 08:17:52;;;;;;;5.88;3.47;;;;;;;27.54;36.69;101965.84;3590688;40;20380;-62
2022/08/11 08:20:42;;;;;;;7.45;3.40;;;;;;;27.78;37.25;101977.84;3586990;40;20055;-63
2022/08/11 08:23:09;;;;;;;10.50;4.75;;;;;;;27.97;37.37;101969.13;3580059;40;20055;-62
2022/08/11 08:25:41;;;;;;;4.78;3.22;;;;;;;27.98;35.36;101962.56;3588598;40;20040;-64
2022/08/11 08:28:14;;;;;;;7.22;3.60;;;;;;;27.90;35.52;101964.50;3593746;39;20302;-63
2022/08/11 08:30:55;;;;;;;3.78;3.20;;;;;;;27.81;34.84;101949.84;3584665;40;20056;-64
2022/08/11 08:33:26;;;;;;;5.28;3.10;;;;;;;28.08;35.81;101967.00;3587487;40;20157;-63
2022/08/11 08:36:18;;;;;;;4.97;3.28;;;;;;;28.31;34.78;101970.63;3588543;40;20092;-63
2022/08/11 08:38:51;;;;;;;6.30;3.10;;;;;;;28.42;34.04;101961.09;3586617;40;20055;-64
2022/08/11 08:41:27;;;;;;;6.40;3.30;;;;;;;28.71;34.31;101957.56;3583621;40;20059;-64
2022/08/11 08:44:06;;;;;;;5.75;3.38;;;;;;;28.97;34.52;101965.41;3590904;40;20145;-63
2022/08/11 08:46:49;;;;;;;6.68;2.80;;;;;;;29.13;33.03;101967.19;3588541;39;20315;-64
2022/08/11 08:49:22;;;;;;;11.88;3.83;;;;;;;29.36;33.23;101967.09;3584180;40;20052;-63
2022/08/11 08:51:57;;;;;;;5.95;3.22;;;;;;;29.10;32.98;101929.66;3588520;40;20130;-63
2022/08/11 08:54:33;;;;;;;8.70;3.58;;;;;;;29.50;32.85;101959.84;3583768;40;20059;-64
2022/08/11 08:57:03;;;;;;;7.95;3.03;;;;;;;29.75;32.27;101961.28;3584616;40;20082;-63
2022/08/11 08:59:34;;;;;;;5.85;3.20;;;;;;;30.00;30.90;101959.03;3584182;40;20041;-63
2022/08/11 09:02:04;;;;;;;6.85;3.38;;;;;;;30.02;29.97;101964.34;3590398;40;20451;-66
2022/08/11 09:04:32;;;;;;;6.10;3.20;;;;;;;30.04;31.28;101960.34;3583648;40;20063;-63
2022/08/11 09:07:11;;;;;;;4.50;3.10;;;;;;;30.10;30.57;101955.94;3590764;40;20123;-63
2022/08/11 09:09:43;;;;;;;8.77;3.72;;;;;;;30.12;31.31;101956.56;3587311;39;20072;-63
2022/08/11 09:12:11;;;;;;;6.38;3.42;;;;;;;30.34;30.88;101954.69;3588943;40;20059;-64
2022/08/11 09:15:02;;;;;;;3.30;2.90;;;;;;;30.56;31.09;101958.31;3584037;39;20103;-64
2022/08/11 09:17:38;;;;;;;7.20;3.45;;;;;;;30.79;30.39;101957.28;3586710;40;20043;-63
2022/08/11 09:20:16;;;;;;;6.82;3.35;;;;;;;30.92;30.47;101958.25;3585524;40;20132;-64
2022/08/11 09:28:22;;;;;;;6.55;3.45;;;;;;;31.17;29.03;101928.06;3584293;40;20059;-63
2022/08/11 09:30:54;;;;;;;5.05;3.20;;;;;;;31.49;28.96;101927.63;3590040;40;20052;-64
2022/08/11 09:33:23;;;;;;;4.15;2.78;;;;;;;31.76;27.39;101942.50;3590758;39;20402;-65
2022/08/11 09:35:52;;;;;;;3.83;2.97;;;;;;;31.71;27.04;101942.25;3591427;40;20302;-65
2022/08/11 09:41:10;;;;;;;3.42;2.65;;;;;;;32.15;26.04;101930.66;3586554;40;20558;-65
2022/08/11 09:46:29;;;;;;;6.13;3.00;;;;;;;32.69;26.35;101943.56;3586445;40;20282;-66
2022/08/11 09:49:00;;;;;;;4.07;2.60;;;;;;;32.66;25.45;101938.41;3590528;40;20056;-63
2022/08/11 09:51:33;;;;;;;5.85;2.90;;;;;;;32.91;25.88;101940.56;3589937;39;20062;-64
2022/08/11 09:54:05;;;;;;;6.53;2.97;;;;;;;32.96;25.82;101940.78;3583811;40;20149;-64
2022/08/11 09:59:22;;;;;;;5.93;2.85;;;;;;;33.25;25.43;101931.09;3583778;40;20107;-66
2022/08/11 10:02:00;;;;;;;7.47;2.60;;;;;;;33.39;25.53;101931.91;3587059;40;20059;-66
2022/08/11 10:04:36;;;;;;;6.47;2.75;;;;;;;33.47;24.89;101914.94;3586087;40;20048;-65
2022/08/11 10:07:05;;;;;;;5.43;2.75;;;;;;;33.56;25.00;101921.13;3589443;40;20052;-66
2022/08/11 10:09:50;;;;;;;7.75;2.75;;;;;;;33.72;24.90;101921.50;3588915;40;20061;-64
2022/08/11 10:12:24;;;;;;;6.05;2.80;;;;;;;33.69;24.49;101915.50;3583896;40;20066;-64
2022/08/11 10:20:38;;;;;;;5.25;2.85;;;;;;;33.83;24.36;101911.56;3588544;40;20046;-64
2022/08/11 10:28:39;;;;;;;4.00;2.55;;;;;;;34.02;25.16;101908.91;3586200;40;20125;-64
2022/08/11 10:33:59;;;;;;;9.07;2.85;;;;;;;33.85;23.74;101892.69;3587011;40;20125;-64
2022/08/11 10:36:54;;;;;;;3.42;2.60;;;;;;;34.03;24.06;101905.03;3584409;39;20048;-64
2022/08/11 10:39:21;;;;;;;7.20;2.92;;;;;;;33.91;23.61;101907.69;3583510;40;20322;-63
2022/08/11 10:44:43;;;;;;;4.20;2.80;;;;;;;34.05;24.91;101894.50;3588838;40;20093;-64
2022/08/11 11:01:10;;;;;;;5.70;2.80;;;;;;;34.42;22.95;101893.59;3588304;40;20092;-64
2022/08/11 11:03:37;;;;;;;4.45;2.72;;;;;;;34.56;23.94;101893.50;3586461;40;20140;-64
2022/08/11 11:06:27;;;;;;;6.25;2.60;;;;;;;34.76;23.44;101887.72;3586106;40;20052;-64
2022/08/11 11:09:10;;;;;;;4.15;2.72;;;;;;;34.95;23.23;101883.00;3585621;40;20050;-65
2022/08/11 11:20:37;;;;;;;3.42;2.22;;;;;;;35.27;21.88;101873.44;3583478;40;20055;-65
2022/08/11 11:23:36;;;;;;;3.00;2.13;;;;;;;35.68;20.35;101874.63;3586332;40;20055;-64
2022/08/11 11:27:18;;;;;;;3.72;1.83;;;;;;;35.28;19.25;101869.53;3590546;40;20052;-64
2022/08/11 11:29:51;;;;;;;3.45;1.95;;;;;;;35.25;19.69;101875.59;3551927;40;20049;-64
2022/08/11 11:33:03;;;;;;;3.85;2.22;;;;;;;35.45;20.91;101869.72;3551253;40;20057;-64
2022/08/11 11:35:38;;;;;;;3.03;2.17;;;;;;;35.58;19.60;101872.38;3581090;40;20095;-65
2022/08/11 11:38:08;;;;;;;3.67;2.30;;;;;;;35.53;20.44;101877.00;3588109;40;20052;-64
2022/08/11 11:40:36;;;;;;;4.07;2.50;;;;;;;35.77;19.57;101862.00;3587915;40;20052;-64
2022/08/11 11:43:04;;;;;;;6.03;2.25;;;;;;;35.93;19.62;101868.84;3591784;40;20391;-64
2022/08/11 11:45:30;;;;;;;4.80;2.70;;;;;;;36.14;19.71;101867.50;3588783;39;20060;-64
2022/08/11 11:48:00;;;;;;;2.95;2.40;;;;;;;36.25;19.99;101847.06;3589469;40;20056;-64
2022/08/11 11:50:36;;;;;;;3.55;2.30;;;;;;;36.49;19.29;101861.09;3584871;40;20060;-64
2022/08/11 11:53:08;;;;;;;2.65;2.20;;;;;;;36.42;19.32;101863.16;3591249;40;20132;-64
2022/08/11 11:55:35;;;;;;;3.20;2.90;;;;;;;36.33;19.79;101859.84;3587685;39;20049;-64
2022/08/11 12:03:38;;;;;;;6.35;2.63;;;;;;;36.66;18.01;101850.88;3591121;40;20155;-65
2022/08/11 12:06:06;;;;;;;3.08;2.20;;;;;;;36.95;18.84;101850.97;3586933;40;20386;-64
2022/08/11 12:08:34;;;;;;;4.68;2.35;;;;;;;37.23;19.21;101841.78;3590252;39;20044;-65
2022/08/11 12:14:03;;;;;;;4.13;2.30;;;;;;;37.32;18.52;101840.31;3572862;40;20056;-65
2022/08/11 12:16:32;;;;;;;3.75;2.75;;;;;;;37.32;18.44;101845.06;3585048;40;20288;-64
2022/08/11 12:19:01;;;;;;;4.55;2.70;;;;;;;37.10;19.05;101809.28;3587418;40;20403;-64
2022/08/11 12:21:29;;;;;;;3.28;2.45;;;;;;;37.41;18.77;101832.34;3589631;40;20059;-64
2022/08/11 12:29:18;;;;;;;3.45;2.22;;;;;;;37.58;18.00;101829.63;3590701;39;20051;-64
2022/08/11 12:31:46;;;;;;;3.92;2.40;;;;;;;37.62;17.99;101823.25;3589910;40;20056;-65
2022/08/11 12:34:15;;;;;;;2.83;2.20;;;;;;;37.63;17.45;101818.50;3589413;39;20095;-65
2022/08/11 12:36:58;;;;;;;3.45;2.25;;;;;;;37.77;18.15;101825.47;3589267;40;20433;-65
2022/08/11 12:45:26;;;;;;;2.95;2.20;;;;;;;37.75;18.21;101802.44;3589637;40;20063;-64
2022/08/11 12:54:49;;;;;;;5.10;2.60;;;;;;;38.48;17.25;101797.81;3588198;40;20059;-65
2022/08/11 13:05:52;;;;;;;4.78;2.22;;;;;;;38.16;18.26;101789.16;3590107;40;20056;-64
2022/08/11 13:08:23;;;;;;;3.10;2.63;;;;;;;38.20;16.96;101795.94;3590389;39;20063;-65
2022/08/11 13:13:43;;;;;;;3.83;2.15;;;;;;;38.19;16.96;101777.41;3584041;40;20051;-64
2022/08/11 13:16:10;;;;;;;2.60;2.40;;;;;;;38.29;15.99;101777.56;3586588;40;20050;-64
2022/08/11 13:18:41;;;;;;;4.22;2.38;;;;;;;38.27;17.20;101768.53;3586663;40;20052;-64
2022/08/11 13:21:11;;;;;;;3.50;2.13;;;;;;;38.43;16.21;101766.81;3590467;39;20404;-64
2022/08/11 13:23:40;;;;;;;3.38;2.10;;;;;;;38.65;15.89;101771.63;3588415;39;20130;-65
2022/08/11 13:26:07;;;;;;;5.72;2.38;;;;;;;38.61;16.00;101767.66;3592554;40;20059;-65
2022/08/11 13:28:39;;;;;;;2.75;2.10;;;;;;;38.72;16.27;101772.28;3589383;39;20153;-64
2022/08/11 13:31:13;;;;;;;2.72;2.20;;;;;;;38.75;15.34;101752.09;3589996;39;20271;-65
2022/08/11 13:33:52;;;;;;;2.90;2.15;;;;;;;38.88;15.28;101762.97;3588547;40;20131;-64
2022/08/11 13:36:24;;;;;;;3.40;1.85;;;;;;;38.73;15.70;101754.31;3589064;40;20055;-64
2022/08/11 13:38:54;;;;;;;2.88;2.20;;;;;;;38.45;15.92;101736.50;3588125;40;20140;-64
2022/08/11 13:41:37;;;;;;;5.82;2.50;;;;;;;38.71;15.54;101764.97;3585059;40;20052;-64
2022/08/11 13:44:06;;;;;;;3.28;2.33;;;;;;;38.49;15.38;101760.16;3584206;40;20076;-64
2022/08/11 13:46:32;;;;;;;4.53;2.08;;;;;;;38.53;16.52;101760.50;3585060;39;20068;-64
2022/08/11 13:49:00;;;;;;;3.53;1.90;;;;;;;38.42;14.86;101762.31;3584052;40;20064;-64
2022/08/11 13:51:31;;;;;;;3.65;2.10;;;;;;;37.97;15.29;101746.44;3584537;40;20250;-65
2022/08/11 13:54:18;;;;;;;3.73;2.00;;;;;;;37.74;16.24;101753.00;3583881;39;20342;-65
2022/08/11 13:56:50;;;;;;;4.97;2.28;;;;;;;37.44;17.06;101744.03;3583277;40;20087;-65
2022/08/11 13:59:21;;;;;;;6.37;2.43;;;;;;;37.41;17.16;101745.38;3583900;40;20048;-65
2022/08/11 14:01:58;;;;;;;2.33;2.08;;;;;;;37.35;16.52;101740.78;3583441;40;20052;-65
2022/08/11 14:04:39;;;;;;;4.10;2.25;;;;;;;36.74;16.33;101658.25;3584412;40;20088;-65
2022/08/11 14:07:09;;;;;;;3.38;2.10;;;;;;;37.17;17.18;101736.22;3587809;40;20095;-64
2022/08/11 14:09:41;;;;;;;2.83;2.05;;;;;;;37.09;16.48;101729.06;3584836;40;20401;-64
2022/08/11 14:15:26;;;;;;;6.80;2.40;;;;;;;36.76;17.44;101734.50;3584358;40;20059;-65
2022/08/11 14:18:04;;;;;;;3.38;2.10;;;;;;;36.27;16.88;101732.00;3584283;40;20058;-64
2022/08/11 14:23:46;;;;;;;4.90;2.20;;;;;;;36.03;17.97;101731.16;3587156;40;20063;-64
2022/08/11 14:26:27;;;;;;;3.03;2.30;;;;;;;35.94;18.43;101725.06;3587497;40;20066;-64
2022/08/11 14:29:18;;;;;;;2.70;2.20;;;;;;;36.03;18.34;101725.53;3584603;39;20048;-64
2022/08/11 14:31:47;;;;;;;4.70;2.60;;;;;;;36.03;17.87;101720.81;3584431;40;20060;-64
2022/08/11 14:34:21;;;;;;;3.25;2.20;;;;;;;35.96;18.29;101719.19;3585781;40;20044;-64
2022/08/11 14:36:52;;;;;;;5.05;2.40;;;;;;;35.82;18.07;101712.13;3583560;40;20048;-64
2022/08/11 14:39:24;;;;;;;4.05;2.33;;;;;;;35.98;17.19;101717.00;3584129;40;20331;-64
2022/08/11 14:47:03;;;;;;;3.97;2.35;;;;;;;35.87;17.68;101715.03;3584905;40;20117;-64
2022/08/11 14:47:53;;;;;;;2.33;2.13;;;;;;;35.80;19.05;101702.03;3587418;40;20113;-64
2022/08/11 14:50:27;;;;;;;4.35;2.38;;;;;;;35.83;18.38;101708.25;3587090;39;20048;-64
2022/08/11 14:53:03;;;;;;;2.72;2.50;;;;;;;35.72;18.25;101696.81;3584330;40;20055;-64
2022/08/11 14:58:24;;;;;;;4.75;2.55;;;;;;;35.61;19.40;101713.56;3589209;40;20121;-64
2022/08/11 15:00:57;;;;;;;3.97;2.55;;;;;;;35.38;19.65;101677.97;3584264;39;20311;-64
2022/08/11 15:03:28;;;;;;;4.18;2.38;;;;;;;35.54;20.11;101699.69;3583827;40;20052;-64
2022/08/11 15:06:00;;;;;;;5.05;2.50;;;;;;;35.43;19.90;101694.88;3586521;40;20068;-64
2022/08/11 15:08:54;;;;;;;7.15;2.75;;;;;;;35.44;20.32;101691.00;3585822;40;20393;-64
2022/08/11 15:17:06;;;;;;;3.13;2.22;;;;;;;35.30;19.74;101694.00;3585865;40;20122;-64
2022/08/11 15:17:08;;;;;;;3.00;2.40;;;;;;;35.27;18.71;101686.09;3587753;39;20047;-64
2022/08/11 15:24:17;;;;;;;3.55;2.38;;;;;;;35.23;18.54;101687.66;3586017;39;20048;-64
2022/08/11 15:25:19;;;;;;;4.57;2.35;;;;;;;35.18;18.93;101678.28;3572796;40;20118;-64
2022/08/11 15:39:26;;;;;;;3.45;2.50;;;;;;;34.66;20.06;101673.16;3584967;40;20072;-64
2022/08/11 15:48:13;;;;;;;2.70;2.30;;;;;;;34.64;19.23;101665.03;3587807;40;20059;-64
2022/08/11 15:50:49;;;;;;;2.80;2.60;;;;;;;34.52;19.01;101668.81;3585779;40;20048;-64
2022/08/11 15:53:30;;;;;;;6.55;2.55;;;;;;;34.50;19.37;101668.19;3587576;40;20066;-64
2022/08/11 15:55:59;;;;;;;3.15;1.75;;;;;;;34.46;19.60;101653.00;3586197;39;20111;-64
2022/08/11 16:04:19;;;;;;;2.80;2.10;;;;;;;34.20;19.34;101644.69;3585442;40;20110;-65
2022/08/11 16:06:50;;;;;;;3.75;2.10;;;;;;;34.20;19.41;101653.06;3584545;40;20048;-65
2022/08/11 16:09:47;;;;;;;2.85;2.28;;;;;;;34.15;19.41;101635.31;3585380;40;20048;-65
2022/08/11 16:12:38;;;;;;;2.50;2.10;;;;;;;34.13;19.20;101648.66;3584219;40;20437;-65
2022/08/11 16:18:05;;;;;;;4.90;2.20;;;;;;;33.98;18.94;101644.25;3586838;40;20071;-63
2022/08/11 16:20:34;;;;;;;2.40;2.20;;;;;;;34.00;19.34;101645.94;3585182;40;20146;-63
2022/08/11 16:23:05;;;;;;;5.45;2.10;;;;;;;33.98;19.19;101641.47;3585018;40;20068;-63
2022/08/11 16:25:35;;;;;;;2.95;2.17;;;;;;;33.90;19.37;101625.00;3585350;40;20114;-63
2022/08/11 16:28:06;;;;;;;5.90;2.20;;;;;;;33.85;19.75;101632.41;3584720;40;20106;-63
2022/08/11 16:30:40;;;;;;;4.50;2.03;;;;;;;33.78;19.83;101631.56;3584750;40;20062;-63
2022/08/11 16:33:10;;;;;;;2.03;1.88;;;;;;;33.59;19.59;101627.91;3584994;40;20060;-63
2022/08/11 16:38:34;;;;;;;4.05;2.13;;;;;;;33.41;20.29;101607.22;3585542;40;20121;-64
2022/08/11 16:46:58;;;;;;;4.78;2.05;;;;;;;33.48;20.59;101624.75;3589491;40;20381;-64
2022/08/11 16:46:58;;;;;;;2.60;2.00;;;;;;;33.31;20.18;101629.19;3584729;40;20070;-64
2022/08/11 16:49:34;;;;;;;2.10;1.90;;;;;;;33.29;20.61;101621.03;3586893;39;20051;-65
2022/08/11 16:52:02;;;;;;;2.65;2.45;;;;;;;33.21;20.46;101624.13;3586331;40;20056;-65
2022/08/11 16:54:33;;;;;;;2.55;2.20;;;;;;;33.13;21.09;101617.97;3586401;39;20324;-64
2022/08/11 17:00:00;;;;;;;5.38;2.08;;;;;;;32.82;20.62;101614.06;3584564;40;20441;-64
2022/08/11 17:14:04;;;;;;;2.13;2.00;;;;;;;32.58;21.69;101601.78;3585034;40;20480;-64
2022/08/11 17:16:38;;;;;;;2.42;2.05;;;;;;;32.50;22.04;101605.66;3584712;40;20060;-64
2022/08/11 17:19:10;;;;;;;2.60;2.13;;;;;;;32.49;22.44;101603.94;3586780;40;20048;-64